createdAt,value
2023-03-02T00:01:03.839Z,24.43
2023-03-02T00:05:59.974Z,23.90
2023-03-02T00:10:54.735Z,23.97
2023-03-02T00:15:48.116Z,25.63
2023-03-02T00:20:42.880Z,24.33
2023-03-02T00:25:37.756Z,24.07
2023-03-02T00:30:31.033Z,25.23
2023-03-02T00:35:24.354Z,25.20
2023-03-02T00:40:19.633Z,25.10
2023-03-02T00:45:13.290Z,25.60
2023-03-02T00:50:08.819Z,25.50
2023-03-02T00:55:02.233Z,26.90
2023-03-02T00:59:57.045Z,24.73
2023-03-02T01:04:50.702Z,25.27
2023-03-02T01:09:46.499Z,24.50
2023-03-02T01:14:43.251Z,25.03
2023-03-02T01:19:38.574Z,25.23
2023-03-02T01:24:32.272Z,25.77
2023-03-02T01:29:25.580Z,24.37
2023-03-02T01:34:18.902Z,25.27
2023-03-02T01:39:15.920Z,25.67
2023-03-02T01:44:43.017Z,26.67
2023-03-02T01:49:39.140Z,25.73
2023-03-02T01:54:34.105Z,26.67
2023-03-02T01:59:31.801Z,26.60
2023-03-02T02:04:28.727Z,25.57
2023-03-02T02:09:25.157Z,27.03
2023-03-02T02:14:20.266Z,27.03
2023-03-02T02:19:33.655Z,25.93
2023-03-02T02:24:38.012Z,27.07
2023-03-02T02:29:38.596Z,27.63
2023-03-02T02:34:40.060Z,25.50
2023-03-02T02:39:42.776Z,28.50
2023-03-02T02:44:37.609Z,26.83
2023-03-02T02:49:36.505Z,28.30
2023-03-02T02:54:32.547Z,27.50
2023-03-02T02:59:30.063Z,26.83
2023-03-02T03:04:29.270Z,27.23
2023-03-02T03:09:23.347Z,28.23
2023-03-02T03:14:20.745Z,27.77
2023-03-02T03:19:20.821Z,26.90
2023-03-02T03:24:15.472Z,28.60
2023-03-02T03:29:09.627Z,26.87
2023-03-02T03:34:03.533Z,26.63
2023-03-02T03:38:58.091Z,28.50
2023-03-02T03:43:54.162Z,24.67
2023-03-02T03:48:47.480Z,26.83
2023-03-02T03:53:40.797Z,28.20
2023-03-02T03:58:34.561Z,29.47
2023-03-02T04:03:29.485Z,28.13
2023-03-02T04:08:23.242Z,28.23
2023-03-02T04:13:16.712Z,28.17
2023-03-02T04:18:10.079Z,29.40
2023-03-02T04:23:04.877Z,30.97
2023-03-02T04:27:58.821Z,28.57
2023-03-02T04:32:52.296Z,28.93
2023-03-02T04:37:47.073Z,28.70
2023-03-02T04:42:41.802Z,29.47
2023-03-02T04:47:35.108Z,30.73
2023-03-02T04:52:28.429Z,29.80
2023-03-02T04:57:22.642Z,31.03
2023-03-02T05:02:17.557Z,30.93
2023-03-02T05:07:11.241Z,31.20
2023-03-02T05:12:05.070Z,30.90
2023-03-02T05:16:59.544Z,31.70
2023-03-02T05:21:55.028Z,33.87
2023-03-02T05:26:48.282Z,31.23
2023-03-02T05:31:44.979Z,31.63
2023-03-02T05:36:38.618Z,32.13
2023-03-02T05:41:34.168Z,30.20
2023-03-02T05:46:28.198Z,31.97
2023-03-02T05:51:21.760Z,30.97
2023-03-02T05:56:15.035Z,30.73
2023-03-02T06:01:15.284Z,30.83
2023-03-02T06:06:09.055Z,32.43
2023-03-02T06:11:02.465Z,30.27
2023-03-02T06:15:55.836Z,32.03
2023-03-02T06:20:51.847Z,29.73
2023-03-02T06:25:49.002Z,31.27
2023-03-02T06:30:42.912Z,31.53
2023-03-02T06:35:36.625Z,34.80
2023-03-02T06:40:31.747Z,35.27
2023-03-02T06:45:25.436Z,33.13
2023-03-02T06:50:19.011Z,31.40
2023-03-02T06:55:12.609Z,30.93
2023-03-02T07:00:17.027Z,29.40
2023-03-02T07:05:10.761Z,31.23
2023-03-02T07:10:11.093Z,28.70
2023-03-02T07:15:11.027Z,30.17
2023-03-02T07:20:05.345Z,28.43
2023-03-02T07:24:58.649Z,29.00
2023-03-02T07:29:52.091Z,30.10
2023-03-02T07:34:47.047Z,29.53
2023-03-02T07:39:40.434Z,27.57
2023-03-02T07:44:33.751Z,30.33
2023-03-02T07:49:27.295Z,29.57
2023-03-02T07:54:22.202Z,30.13
2023-03-02T07:59:15.867Z,28.80
2023-03-02T08:04:09.198Z,27.90
2023-03-02T08:09:05.028Z,27.97
2023-03-02T08:14:02.835Z,28.00
2023-03-02T08:18:58.624Z,27.80
2023-03-02T08:23:54.047Z,29.13
2023-03-02T08:28:47.812Z,27.57
2023-03-02T08:33:42.651Z,28.33
2023-03-02T08:38:37.163Z,28.43
2023-03-02T08:43:31.251Z,27.00
2023-03-02T08:48:25.555Z,27.07
2023-03-02T08:53:20.183Z,27.87
2023-03-02T08:58:13.520Z,26.57
2023-03-02T09:03:06.886Z,27.90
2023-03-02T09:08:00.180Z,25.13
2023-03-02T09:12:55.004Z,27.47
2023-03-02T09:17:48.449Z,26.03
2023-03-02T09:22:48.050Z,27.37
2023-03-02T09:27:41.652Z,28.37
2023-03-02T09:32:37.027Z,26.03
2023-03-02T09:37:31.037Z,26.93
2023-03-02T09:42:55.663Z,23.57
2023-03-02T09:48:03.783Z,27.33
2023-03-02T09:53:25.796Z,27.20
2023-03-02T09:58:22.672Z,26.97
2023-03-02T10:03:21.777Z,25.27
2023-03-02T10:08:21.069Z,25.87
2023-03-02T10:13:36.281Z,26.40
2023-03-02T10:18:39.494Z,27.77
2023-03-02T10:23:44.089Z,26.20
2023-03-02T10:28:45.556Z,26.57
2023-03-02T10:33:43.009Z,26.53
2023-03-02T10:38:38.086Z,24.63
2023-03-02T10:43:38.364Z,27.33
2023-03-02T10:48:32.212Z,25.93
2023-03-02T10:53:27.140Z,25.17
2023-03-02T10:58:30.418Z,26.20
2023-03-02T11:03:25.457Z,25.77
2023-03-02T11:08:21.550Z,25.93
2023-03-02T11:13:24.203Z,25.00
2023-03-02T11:18:29.315Z,25.57
2023-03-02T11:23:41.695Z,25.37
2023-03-02T11:28:54.834Z,26.33
2023-03-02T11:34:17.241Z,26.40
2023-03-02T11:39:21.698Z,26.07
2023-03-02T11:44:24.101Z,25.87
2023-03-02T11:49:25.080Z,26.83
2023-03-02T11:54:36.784Z,25.07
2023-03-02T11:59:35.925Z,25.20
2023-03-02T12:04:36.617Z,25.57
2023-03-02T12:09:38.499Z,24.83
2023-03-02T12:14:41.054Z,25.87
2023-03-02T12:19:45.165Z,24.03
2023-03-02T12:24:42.888Z,25.27
2023-03-02T12:29:44.796Z,23.73
2023-03-02T12:34:42.844Z,25.03
2023-03-02T12:40:26.183Z,24.10
2023-03-02T12:45:43.434Z,24.13
2023-03-02T12:50:40.957Z,24.70
2023-03-02T12:55:36.886Z,23.77
2023-03-02T13:00:36.073Z,25.67
2023-03-02T13:05:33.184Z,25.37
2023-03-02T13:10:37.399Z,25.83
2023-03-02T13:15:32.373Z,23.77
2023-03-02T13:20:30.159Z,25.23
2023-03-02T13:25:28.622Z,25.17
2023-03-02T13:30:28.120Z,24.40
2023-03-02T13:35:29.299Z,24.83
2023-03-02T13:40:42.148Z,24.17
2023-03-02T13:45:35.517Z,24.53
2023-03-02T13:50:34.106Z,23.80
2023-03-02T13:55:27.819Z,25.10
2023-03-02T14:00:28.003Z,33.73
2023-03-02T14:05:24.364Z,24.30
2023-03-02T14:10:21.450Z,26.13
2023-03-02T14:15:17.889Z,28.87
2023-03-02T14:20:15.952Z,26.07
2023-03-02T14:25:15.447Z,27.23
2023-03-02T14:30:22.541Z,25.93
2023-03-02T14:35:17.637Z,25.77
2023-03-02T14:40:18.942Z,26.30
2023-03-02T14:45:12.875Z,25.77
2023-03-02T14:50:14.809Z,26.10
2023-03-02T14:55:18.528Z,25.47
2023-03-02T15:00:16.589Z,25.00
2023-03-02T15:05:11.931Z,25.57
2023-03-02T15:10:07.362Z,23.90
2023-03-02T15:15:00.816Z,24.53
2023-03-02T15:19:54.356Z,23.83
2023-03-02T15:24:49.149Z,22.97
2023-03-02T15:29:46.435Z,23.83
2023-03-02T15:34:40.186Z,22.47
2023-03-02T15:39:34.445Z,23.47
2023-03-02T15:44:29.758Z,22.97
2023-03-02T15:49:24.930Z,23.83
2023-03-02T15:54:18.547Z,24.60
2023-03-02T15:59:15.206Z,24.10
2023-03-02T16:04:10.096Z,24.63
2023-03-02T16:09:04.539Z,22.73
2023-03-02T16:13:58.084Z,23.60
2023-03-02T16:18:52.604Z,23.23
2023-03-02T16:23:48.179Z,23.30
2023-03-02T16:28:42.740Z,20.80
2023-03-02T16:33:36.488Z,23.50
2023-03-02T16:38:29.834Z,21.80
2023-03-02T16:43:25.146Z,24.13
2023-03-02T16:48:18.722Z,22.70
2023-03-02T16:53:13.483Z,23.63
2023-03-02T16:58:07.095Z,22.30
2023-03-02T17:03:02.351Z,21.73
2023-03-02T17:07:58.837Z,22.50
2023-03-02T17:12:52.180Z,22.40
2023-03-02T17:17:45.650Z,22.53
2023-03-02T17:22:40.592Z,22.23
2023-03-02T17:27:34.495Z,23.63
2023-03-02T17:32:31.386Z,22.73
2023-03-02T17:37:25.825Z,23.20
2023-03-02T17:42:21.411Z,22.83
2023-03-02T17:47:16.894Z,23.73
2023-03-02T17:52:10.436Z,24.10
2023-03-02T17:57:03.868Z,23.50
2023-03-02T18:01:58.727Z,22.20
2023-03-02T18:06:54.033Z,24.80
2023-03-02T18:11:47.943Z,24.33
2023-03-02T18:16:41.673Z,22.70
2023-03-02T18:21:37.129Z,22.90
2023-03-02T18:26:30.776Z,23.40
2023-03-02T18:31:24.661Z,23.07
2023-03-02T18:36:19.080Z,22.23
2023-03-02T18:41:18.708Z,24.33
2023-03-02T18:46:21.836Z,23.03
2023-03-02T18:51:15.907Z,23.93
2023-03-02T18:56:19.871Z,23.60
2023-03-02T19:01:21.131Z,23.63
2023-03-02T19:06:16.539Z,23.67
2023-03-02T19:11:10.000Z,24.23
2023-03-02T19:16:05.981Z,22.97
2023-03-02T19:21:05.429Z,24.40
2023-03-02T19:25:59.056Z,24.93
2023-03-02T19:30:53.379Z,24.63
2023-03-02T19:35:48.662Z,24.10
2023-03-02T19:40:43.456Z,24.70
2023-03-02T19:45:38.374Z,24.60
2023-03-02T19:50:31.983Z,25.33
2023-03-02T19:55:27.753Z,24.30
2023-03-02T20:00:22.442Z,24.17
2023-03-02T20:05:16.759Z,24.03
2023-03-02T20:10:12.438Z,25.53
2023-03-02T20:15:10.255Z,24.67
2023-03-02T20:20:05.707Z,24.43
2023-03-02T20:24:59.182Z,23.97
2023-03-02T20:29:52.750Z,25.37
2023-03-02T20:34:47.912Z,24.13
2023-03-02T20:39:52.328Z,25.20
2023-03-02T20:44:50.596Z,24.40
2023-03-02T20:50:11.331Z,26.23
2023-03-02T20:55:17.709Z,26.03
2023-03-02T21:00:33.786Z,24.53
2023-03-02T21:05:55.681Z,25.00
2023-03-02T21:11:56.234Z,23.93
2023-03-02T21:17:38.763Z,25.30
2023-03-02T21:23:11.264Z,24.17
2023-03-02T21:28:20.425Z,24.73
2023-03-02T21:33:27.455Z,23.87
2023-03-02T21:38:49.460Z,25.27
2023-03-02T21:44:07.881Z,23.97
2023-03-02T21:49:35.275Z,24.77
2023-03-02T21:55:22.634Z,24.40
2023-03-02T22:01:05.332Z,24.37
2023-03-02T22:06:26.554Z,25.00
2023-03-02T22:11:48.953Z,25.77
2023-03-02T22:17:37.457Z,25.50
2023-03-02T22:23:15.781Z,25.73
2023-03-02T22:28:46.226Z,25.03
2023-03-02T22:40:01.334Z,27.17
2023-03-02T22:45:18.095Z,27.07
2023-03-02T22:50:55.356Z,25.40
2023-03-02T22:56:35.763Z,26.60
2023-03-02T23:01:45.202Z,24.47
2023-03-02T23:06:45.110Z,25.17
2023-03-02T23:11:41.900Z,26.10
2023-03-02T23:16:37.867Z,25.27
2023-03-02T23:21:40.105Z,25.77
2023-03-02T23:26:33.409Z,26.57
2023-03-02T23:31:27.161Z,27.00
2023-03-02T23:36:22.895Z,28.27
2023-03-02T23:41:16.698Z,25.40
2023-03-02T23:46:13.901Z,25.67
2023-03-02T23:51:07.768Z,26.13
2023-03-02T23:56:02.559Z,26.17
